Time;durP1;ratioP1;P1;durP2;ratioP2;P2;SDS_P1;SDS_P2;PMS_P1;PMS_P2;Temp;Humidity;BMP_temperature;BMP_pressure;BME280_temperature;BME280_humidity;BME280_pressure;Samples;Min_cycle;Max_cycle;Signal;HPM_P1;HPM_P2
2021/07/20 00:02:12;;;;;;;18.07;13.30;;;17.70;99.90;;;;;;5028285;28;20537;-74
2021/07/20 00:04:57;;;;;;;18.70;12.97;;;17.70;99.90;;;;;;5018689;28;20466;-74
2021/07/20 00:07:44;;;;;;;19.13;13.73;;;17.70;99.90;;;;;;5017490;28;20531;-74
2021/07/20 00:10:32;;;;;;;21.30;13.27;;;17.70;99.90;;;;;;5026836;28;20442;-75
2021/07/20 00:13:19;;;;;;;19.63;13.20;;;17.70;99.90;;;;;;5027429;28;20510;-75
2021/07/20 00:16:05;;;;;;;19.30;13.43;;;17.70;99.90;;;;;;5026720;28;20491;-74
2021/07/20 00:18:51;;;;;;;19.63;14.93;;;17.60;99.90;;;;;;5019544;28;20448;-74
2021/07/20 00:21:37;;;;;;;18.83;13.43;;;17.40;99.90;;;;;;5019331;28;20488;-75
2021/07/20 00:24:23;;;;;;;16.03;10.80;;;17.20;99.90;;;;;;5027962;28;20573;-74
2021/07/20 00:27:08;;;;;;;15.17;12.97;;;17.00;99.90;;;;;;5023182;28;20423;-75
2021/07/20 00:29:55;;;;;;;20.13;14.40;;;16.90;99.90;;;;;;5023143;28;20561;-75
2021/07/20 00:32:42;;;;;;;17.73;13.00;;;16.80;99.90;;;;;;5030487;28;20474;-75
2021/07/20 00:35:27;;;;;;;19.80;13.77;;;16.70;99.90;;;;;;5029879;28;20792;-75
2021/07/20 00:38:13;;;;;;;16.47;13.17;;;16.60;99.90;;;;;;5023295;28;20442;-74
2021/07/20 00:40:58;;;;;;;17.50;12.90;;;16.70;99.90;;;;;;5030144;28;20470;-74
2021/07/20 00:43:44;;;;;;;18.20;14.33;;;16.70;99.90;;;;;;5026032;28;20417;-74
2021/07/20 00:46:31;;;;;;;17.47;13.20;;;16.80;99.90;;;;;;5030156;28;20487;-74
2021/07/20 00:49:16;;;;;;;20.27;13.17;;;16.70;99.90;;;;;;5030071;28;20454;-74
2021/07/20 00:52:02;;;;;;;19.47;13.60;;;16.60;99.90;;;;;;5023252;28;21054;-74
2021/07/20 00:54:47;;;;;;;17.03;12.47;;;16.40;99.90;;;;;;5025754;28;20414;-74
2021/07/20 00:57:33;;;;;;;18.53;14.60;;;16.20;99.90;;;;;;5026003;28;20931;-75
2021/07/20 01:00:22;;;;;;;23.50;13.60;;;16.20;99.90;;;;;;5029768;28;20542;-74
2021/07/20 01:03:09;;;;;;;19.70;14.83;;;16.20;99.90;;;;;;5020503;28;20547;-75
2021/07/20 01:05:55;;;;;;;26.27;14.00;;;16.10;99.90;;;;;;5023915;28;20480;-75
2021/07/20 01:08:42;;;;;;;18.00;13.03;;;16.10;99.90;;;;;;5024434;28;20498;-75
2021/07/20 01:11:30;;;;;;;18.43;13.37;;;16.00;99.90;;;;;;5022012;28;20493;-75
2021/07/20 01:14:16;;;;;;;22.70;14.10;;;16.00;99.90;;;;;;5028376;28;20430;-75
2021/07/20 01:17:02;;;;;;;20.30;13.50;;;16.10;99.90;;;;;;5028514;28;20420;-75
2021/07/20 01:19:55;;;;;;;22.10;14.87;;;16.00;99.90;;;;;;5027778;28;20534;-74
2021/07/20 01:22:45;;;;;;;18.73;13.97;;;16.00;99.90;;;;;;5021550;28;20899;-75
2021/07/20 01:25:32;;;;;;;17.40;11.87;;;15.90;99.90;;;;;;5029659;28;20805;-74
2021/07/20 01:28:22;;;;;;;20.43;12.70;;;15.90;99.90;;;;;;5026496;28;20450;-74
2021/07/20 01:31:11;;;;;;;16.43;12.77;;;15.90;99.90;;;;;;5026462;28;20467;-74
2021/07/20 01:33:57;;;;;;;27.20;14.57;;;16.00;99.90;;;;;;5024190;28;20425;-75
2021/07/20 01:36:47;;;;;;;19.70;13.10;;;16.00;99.90;;;;;;5024136;28;20429;-75
2021/07/20 01:39:32;;;;;;;15.53;12.10;;;16.00;99.90;;;;;;5032958;28;20414;-75
2021/07/20 01:42:20;;;;;;;17.57;12.73;;;16.00;99.90;;;;;;5029617;28;20444;-75
2021/07/20 01:45:07;;;;;;;17.13;14.20;;;15.90;99.90;;;;;;5027826;28;20433;-75
2021/07/20 01:47:54;;;;;;;22.37;14.10;;;15.90;99.90;;;;;;5024255;28;20431;-74
2021/07/20 01:50:40;;;;;;;18.70;12.70;;;15.80;99.90;;;;;;5020246;28;20475;-74
2021/07/20 01:53:26;;;;;;;17.30;12.90;;;15.70;99.90;;;;;;5031443;28;20426;-74
2021/07/20 01:56:12;;;;;;;15.73;13.23;;;15.60;99.90;;;;;;5024465;28;20421;-74
2021/07/20 01:59:00;;;;;;;21.37;14.37;;;15.60;99.90;;;;;;5027208;28;20870;-74
2021/07/20 02:01:52;;;;;;;21.97;14.97;;;15.50;99.90;;;;;;5026144;28;20577;-75
2021/07/20 02:08:23;;;;;;;18.23;13.60;;;15.50;99.90;;;;;;5020089;28;20477;-75
2021/07/20 02:11:04;;;;;;;17.80;12.77;;;15.40;99.90;;;;;;5033955;28;20504;-74
2021/07/20 02:13:54;;;;;;;18.37;12.97;;;15.50;99.90;;;;;;5024535;28;20917;-74
2021/07/20 02:16:46;;;;;;;19.83;12.67;;;15.60;99.90;;;;;;5022659;28;20451;-75
2021/07/20 02:19:36;;;;;;;16.73;12.37;;;15.50;99.90;;;;;;5032333;28;20493;-74
2021/07/20 02:22:24;;;;;;;19.50;13.77;;;15.60;99.90;;;;;;5028403;28;20445;-74
2021/07/20 02:25:12;;;;;;;20.60;13.00;;;15.70;99.90;;;;;;5032767;28;20517;-75
2021/07/20 02:27:59;;;;;;;21.50;14.60;;;15.90;99.90;;;;;;5028032;28;20425;-75
2021/07/20 02:30:45;;;;;;;16.27;13.30;;;15.70;99.90;;;;;;5031584;28;20471;-75
2021/07/20 02:33:32;;;;;;;19.87;13.70;;;15.60;99.90;;;;;;5031736;28;20430;-74
2021/07/20 02:36:18;;;;;;;18.47;13.30;;;15.40;99.90;;;;;;5022051;28;20426;-74
2021/07/20 02:39:05;;;;;;;20.17;13.27;;;15.20;99.90;;;;;;5025412;28;20526;-74
2021/07/20 02:41:52;;;;;;;21.53;13.57;;;15.20;99.90;;;;;;5033078;28;20457;-74
2021/07/20 02:44:39;;;;;;;21.13;14.23;;;15.20;99.90;;;;;;5029214;28;20439;-74
2021/07/20 02:47:26;;;;;;;17.10;12.80;;;15.30;99.90;;;;;;5023171;28;20477;-74
2021/07/20 02:50:18;;;;;;;21.33;13.77;;;15.20;99.90;;;;;;5030523;28;20976;-74
2021/07/20 02:53:05;;;;;;;19.17;12.77;;;15.20;99.90;;;;;;5032130;28;20530;-74
2021/07/20 02:55:51;;;;;;;21.17;13.93;;;15.20;99.90;;;;;;5032223;28;20494;-74
2021/07/20 02:58:38;;;;;;;17.73;13.00;;;15.30;99.90;;;;;;5023388;28;20576;-75
2021/07/20 03:01:26;;;;;;;18.80;13.80;;;15.40;99.90;;;;;;5027327;28;21035;-75
2021/07/20 03:04:11;;;;;;;18.73;12.67;;;15.50;99.90;;;;;;5026593;28;20553;-74
2021/07/20 03:07:01;;;;;;;18.70;13.13;;;15.50;99.90;;;;;;5025051;28;20576;-74
2021/07/20 03:09:50;;;;;;;18.27;13.27;;;15.60;99.90;;;;;;5033340;28;20442;-74
2021/07/20 03:12:38;;;;;;;19.90;12.87;;;15.70;99.90;;;;;;5031234;28;20451;-74
2021/07/20 03:15:25;;;;;;;19.37;13.77;;;15.50;99.90;;;;;;5029434;28;20500;-74
2021/07/20 03:18:13;;;;;;;15.73;11.97;;;15.50;99.90;;;;;;5019804;28;20429;-74
2021/07/20 03:21:01;;;;;;;20.67;12.47;;;15.20;99.90;;;;;;5031642;28;20549;-74
2021/07/20 03:23:49;;;;;;;18.63;12.70;;;15.10;99.90;;;;;;5030930;28;20843;-74
2021/07/20 03:26:36;;;;;;;19.00;13.13;;;15.20;99.90;;;;;;5022247;28;20445;-75
2021/07/20 03:29:23;;;;;;;22.20;13.97;;;15.10;99.90;;;;;;5012965;28;20394;-74
2021/07/20 03:32:09;;;;;;;18.30;13.03;;;15.20;99.90;;;;;;5013071;28;20427;-74
2021/07/20 03:34:56;;;;;;;17.73;12.93;;;15.30;99.90;;;;;;5022588;28;20938;-74
2021/07/20 03:37:42;;;;;;;21.53;14.10;;;15.20;99.90;;;;;;5033137;28;20439;-74
2021/07/20 03:40:30;;;;;;;21.23;12.40;;;15.20;99.90;;;;;;5034791;28;20434;-74
2021/07/20 03:43:18;;;;;;;15.20;11.77;;;15.20;99.90;;;;;;5032669;28;20454;-74
2021/07/20 03:46:04;;;;;;;16.57;12.53;;;15.10;99.90;;;;;;5032218;28;20969;-74
2021/07/20 03:48:50;;;;;;;21.80;13.30;;;15.00;99.90;;;;;;5032034;28;20508;-74
2021/07/20 03:51:36;;;;;;;16.23;11.93;;;15.00;99.90;;;;;;5032350;28;20498;-74
2021/07/20 03:54:23;;;;;;;17.23;12.70;;;15.10;99.90;;;;;;5032554;28;20397;-75
2021/07/20 03:57:13;;;;;;;16.67;12.80;;;15.20;99.90;;;;;;5012443;28;20391;-74
2021/07/20 04:00:01;;;;;;;20.57;13.23;;;15.20;99.90;;;;;;5012620;28;20499;-74
2021/07/20 04:02:50;;;;;;;16.67;11.60;;;15.00;99.90;;;;;;5013006;28;20552;-74
2021/07/20 04:05:39;;;;;;;17.83;13.67;;;14.90;99.90;;;;;;5029735;28;20450;-74
2021/07/20 04:08:26;;;;;;;19.73;12.67;;;14.80;99.90;;;;;;5032129;28;20919;-74
2021/07/20 04:11:15;;;;;;;23.23;14.00;;;14.70;99.90;;;;;;5028661;28;20438;-74
2021/07/20 04:14:03;;;;;;;19.50;13.47;;;14.70;99.90;;;;;;5031098;28;20943;-74
2021/07/20 04:16:48;;;;;;;18.53;13.70;;;14.90;99.90;;;;;;5031117;28;20421;-74
2021/07/20 04:19:35;;;;;;;19.03;12.87;;;14.90;99.90;;;;;;5032060;28;20513;-75
2021/07/20 04:22:21;;;;;;;15.80;12.80;;;15.00;99.90;;;;;;5028424;28;20469;-75
2021/07/20 04:25:09;;;;;;;20.50;12.33;;;15.10;99.90;;;;;;5021190;28;20840;-74
2021/07/20 04:27:55;;;;;;;18.10;11.40;;;15.20;99.90;;;;;;5021752;28;20462;-74
2021/07/20 04:30:45;;;;;;;20.13;13.70;;;15.20;99.90;;;;;;5028643;28;20836;-74
2021/07/20 04:33:33;;;;;;;16.83;12.67;;;15.10;99.90;;;;;;5030212;28;20505;-74
2021/07/20 04:36:21;;;;;;;18.93;13.20;;;15.00;99.90;;;;;;5030507;28;20448;-74
2021/07/20 04:39:09;;;;;;;18.90;13.60;;;15.10;99.90;;;;;;5022716;28;20468;-74
2021/07/20 04:41:55;;;;;;;19.70;13.80;;;15.10;99.90;;;;;;5022302;28;20669;-74
2021/07/20 04:44:41;;;;;;;25.50;13.20;;;15.30;99.90;;;;;;5018210;28;20445;-74
2021/07/20 04:47:28;;;;;;;16.60;12.20;;;15.40;99.90;;;;;;5031353;28;20443;-74
2021/07/20 04:50:15;;;;;;;17.70;12.77;;;15.50;99.90;;;;;;5031453;28;20397;-74
2021/07/20 04:53:03;;;;;;;18.70;13.40;;;15.60;99.90;;;;;;5031334;28;20900;-74
2021/07/20 04:55:54;;;;;;;18.20;12.97;;;15.80;99.90;;;;;;5012097;28;20408;-74
2021/07/20 04:58:39;;;;;;;20.90;13.60;;;15.80;99.90;;;;;;5018095;28;20558;-74
2021/07/20 05:01:26;;;;;;;29.37;13.37;;;15.70;99.90;;;;;;5030864;28;20818;-75
2021/07/20 05:04:13;;;;;;;17.83;12.60;;;15.80;99.90;;;;;;5031100;28;20770;-74
2021/07/20 05:07:02;;;;;;;21.43;13.83;;;15.90;99.90;;;;;;5030334;28;20750;-75
2021/07/20 05:09:49;;;;;;;16.43;12.97;;;15.90;99.90;;;;;;5034522;28;20431;-74
2021/07/20 05:12:37;;;;;;;19.43;13.67;;;15.90;99.90;;;;;;5031225;28;20510;-75
2021/07/20 05:15:22;;;;;;;17.90;13.90;;;15.80;99.90;;;;;;5030738;28;20431;-75
2021/07/20 05:18:08;;;;;;;18.43;13.47;;;15.80;99.90;;;;;;5031275;28;20427;-74
2021/07/20 05:20:59;;;;;;;16.67;12.27;;;15.90;99.90;;;;;;5025619;28;20464;-74
2021/07/20 05:23:46;;;;;;;17.77;12.77;;;16.10;99.90;;;;;;5031272;28;20559;-74
2021/07/20 05:26:33;;;;;;;27.43;13.27;;;16.30;99.90;;;;;;5031615;28;20596;-75
2021/07/20 05:29:20;;;;;;;17.20;12.73;;;16.50;99.90;;;;;;5035269;28;20449;-75
2021/07/20 05:32:08;;;;;;;18.73;12.37;;;16.70;99.90;;;;;;5035102;28;20418;-75
2021/07/20 05:34:53;;;;;;;20.13;13.40;;;16.80;99.90;;;;;;5032289;28;20447;-75
2021/07/20 05:37:41;;;;;;;19.60;11.93;;;16.90;99.90;;;;;;5035018;28;20397;-75
2021/07/20 05:40:28;;;;;;;18.50;13.83;;;16.90;99.90;;;;;;5037710;28;20429;-74
2021/07/20 05:43:14;;;;;;;19.67;14.33;;;17.10;99.90;;;;;;5025255;28;20438;-74
2021/07/20 05:46:02;;;;;;;16.40;12.60;;;17.10;99.90;;;;;;5027417;28;20457;-74
2021/07/20 05:48:49;;;;;;;17.47;13.13;;;17.10;99.90;;;;;;5026981;28;20427;-75
2021/07/20 05:51:37;;;;;;;18.30;14.33;;;17.20;99.90;;;;;;5030578;28;20442;-74
2021/07/20 05:54:26;;;;;;;16.57;12.80;;;17.30;99.90;;;;;;5030953;28;20501;-75
2021/07/20 05:57:13;;;;;;;17.90;13.87;;;17.30;99.90;;;;;;5031525;28;20428;-75
2021/07/20 05:59:59;;;;;;;24.13;15.10;;;17.40;99.90;;;;;;5034461;28;20431;-75
2021/07/20 06:02:45;;;;;;;23.20;13.30;;;17.40;99.90;;;;;;5034641;28;20403;-74
2021/07/20 06:05:31;;;;;;;24.07;14.50;;;17.50;99.90;;;;;;5028810;28;20454;-74
2021/07/20 06:08:18;;;;;;;20.93;14.43;;;17.60;99.90;;;;;;5034624;28;20427;-74
2021/07/20 06:11:07;;;;;;;17.50;13.03;;;17.70;99.90;;;;;;5037570;28;20434;-74
2021/07/20 06:13:54;;;;;;;20.67;12.73;;;17.80;99.90;;;;;;5014745;28;20396;-74
2021/07/20 06:16:41;;;;;;;19.20;13.33;;;18.00;99.90;;;;;;5014155;28;20403;-75
2021/07/20 06:19:27;;;;;;;16.70;13.07;;;18.10;99.90;;;;;;5020293;28;20448;-74
2021/07/20 06:22:14;;;;;;;20.87;13.87;;;18.20;99.90;;;;;;5033920;28;20460;-74
2021/07/20 06:25:02;;;;;;;18.07;12.93;;;18.30;99.90;;;;;;5033744;28;20424;-74
2021/07/20 06:27:49;;;;;;;20.70;13.13;;;18.40;99.90;;;;;;5034003;28;20975;-74
2021/07/20 06:30:36;;;;;;;18.03;12.70;;;18.50;99.90;;;;;;5033921;28;20452;-74
2021/07/20 06:33:22;;;;;;;23.80;14.40;;;18.70;99.90;;;;;;5014555;28;20447;-74
2021/07/20 06:36:09;;;;;;;18.90;12.07;;;18.70;99.90;;;;;;5032796;28;20414;-75
2021/07/20 06:38:55;;;;;;;21.87;14.23;;;18.70;99.90;;;;;;5034296;28;20428;-75
2021/07/20 06:41:42;;;;;;;20.53;13.03;;;18.90;99.90;;;;;;5033868;28;20486;-74
2021/07/20 06:44:30;;;;;;;19.37;12.70;;;18.90;99.90;;;;;;5033564;28;20401;-74
2021/07/20 06:47:17;;;;;;;18.00;13.97;;;19.10;99.90;;;;;;5032926;28;20454;-74
2021/07/20 06:50:04;;;;;;;21.40;12.63;;;19.10;99.90;;;;;;5032807;28;20411;-74
2021/07/20 06:52:50;;;;;;;18.83;13.00;;;19.10;99.90;;;;;;5033628;28;20436;-74
2021/07/20 06:55:37;;;;;;;17.60;12.70;;;19.20;99.90;;;;;;5033130;28;20429;-74
2021/07/20 06:58:26;;;;;;;15.70;12.13;;;19.40;99.90;;;;;;5033624;28;20417;-74
2021/07/20 07:01:16;;;;;;;16.00;12.70;;;19.30;99.90;;;;;;5033275;28;20827;-75
2021/07/20 07:04:08;;;;;;;17.90;12.87;;;19.40;99.90;;;;;;5033440;28;20941;-74
2021/07/20 07:06:57;;;;;;;17.13;12.30;;;19.60;99.90;;;;;;5025480;28;20485;-74
2021/07/20 07:09:44;;;;;;;25.67;13.43;;;19.70;99.90;;;;;;5024802;28;21069;-75
2021/07/20 07:12:31;;;;;;;20.03;13.30;;;19.70;99.90;;;;;;5033267;28;20448;-75
2021/07/20 07:15:19;;;;;;;24.53;12.33;;;19.80;99.90;;;;;;5032955;28;20452;-74
2021/07/20 07:18:07;;;;;;;18.07;12.33;;;19.90;99.90;;;;;;5033162;28;20421;-74
2021/07/20 07:20:54;;;;;;;16.23;10.77;;;20.00;99.90;;;;;;5031351;28;20910;-74
2021/07/20 07:23:41;;;;;;;22.27;13.00;;;20.10;99.90;;;;;;5013350;28;20916;-75
2021/07/20 07:26:28;;;;;;;20.73;13.13;;;20.20;99.90;;;;;;5012622;28;20471;-75
2021/07/20 07:29:16;;;;;;;18.00;12.53;;;20.20;99.90;;;;;;5013384;28;20421;-75
2021/07/20 07:32:01;;;;;;;18.77;13.00;;;20.20;99.90;;;;;;5012993;28;20453;-75
2021/07/20 07:34:49;;;;;;;20.50;11.60;;;20.20;99.90;;;;;;5022929;28;20821;-74
2021/07/20 07:37:36;;;;;;;20.63;12.90;;;20.30;99.90;;;;;;5032630;28;20425;-75
2021/07/20 07:40:23;;;;;;;18.37;12.23;;;20.30;99.90;;;;;;5036104;28;20565;-74
2021/07/20 07:43:10;;;;;;;15.80;11.67;;;20.40;99.90;;;;;;5031430;28;20452;-74
2021/07/20 07:45:56;;;;;;;18.10;12.50;;;20.40;99.90;;;;;;5032327;28;20447;-73
2021/07/20 07:48:42;;;;;;;16.40;11.50;;;20.40;99.90;;;;;;5031651;28;20969;-74
2021/07/20 07:51:30;;;;;;;24.33;12.77;;;20.50;99.90;;;;;;5027376;28;20830;-74
2021/07/20 07:54:16;;;;;;;17.13;12.00;;;20.60;99.90;;;;;;5027489;28;20465;-73
2021/07/20 07:57:02;;;;;;;20.90;12.47;;;20.70;99.90;;;;;;5027010;28;20896;-74
2021/07/20 07:59:52;;;;;;;18.50;12.20;;;20.70;98.00;;;;;;5028039;28;20573;-74
2021/07/20 08:02:40;;;;;;;19.10;12.60;;;20.80;97.20;;;;;;5031061;28;20445;-74
2021/07/20 08:05:27;;;;;;;17.30;11.43;;;20.80;97.40;;;;;;5029195;28;20836;-74
2021/07/20 08:08:17;;;;;;;16.17;11.30;;;20.90;97.20;;;;;;5029204;28;20572;-74
2021/07/20 08:11:04;;;;;;;15.63;11.97;;;21.00;97.40;;;;;;5029844;28;20595;-74
2021/07/20 08:13:52;;;;;;;20.20;11.23;;;21.10;96.60;;;;;;5023134;28;20511;-74
2021/07/20 08:16:42;;;;;;;14.53;10.80;;;21.20;95.10;;;;;;5030733;28;20452;-74
2021/07/20 08:19:31;;;;;;;21.27;11.57;;;21.20;94.30;;;;;;5018647;28;20433;-74
2021/07/20 08:22:18;;;;;;;14.77;10.50;;;21.30;92.90;;;;;;5038276;22;20493;-73
2021/07/20 08:25:10;;;;;;;20.90;12.90;;;21.30;93.40;;;;;;4992381;28;20419;-74
2021/07/20 08:28:02;;;;;;;15.40;11.10;;;21.40;91.80;;;;;;5015558;28;20495;-75
2021/07/20 08:30:51;;;;;;;16.07;11.90;;;21.40;91.20;;;;;;5017230;28;20485;-74
2021/07/20 08:33:39;;;;;;;15.53;10.73;;;21.40;88.00;;;;;;4998421;28;20610;-75
2021/07/20 08:36:27;;;;;;;20.20;10.60;;;21.40;89.40;;;;;;5021688;28;21082;-75
2021/07/20 08:39:15;;;;;;;19.50;11.17;;;21.50;80.80;;;;;;5016546;28;20422;-73
2021/07/20 08:42:15;;;;;;;16.03;11.50;;;21.40;83.20;;;;;;5005030;28;20466;-71
2021/07/20 08:45:10;;;;;;;16.00;11.40;;;21.50;80.70;;;;;;5021232;28;20403;-73
2021/07/20 08:48:15;;;;;;;16.77;11.57;;;21.50;81.80;;;;;;5029283;28;20518;-72
2021/07/20 08:51:05;;;;;;;15.47;10.70;;;21.50;79.40;;;;;;5010332;28;20403;-70
2021/07/20 08:53:57;;;;;;;13.30;10.03;;;21.50;79.20;;;;;;5010344;28;20471;-70
2021/07/20 08:56:44;;;;;;;13.83;9.50;;;21.40;75.20;;;;;;5011353;28;20561;-70
2021/07/20 08:59:39;;;;;;;13.97;10.30;;;21.50;74.20;;;;;;5011829;28;20424;-73
2021/07/20 09:02:40;;;;;;;10.73;8.83;;;21.60;75.50;;;;;;5011150;28;20434;-73
2021/07/20 09:05:28;;;;;;;15.03;10.43;;;21.70;74.20;;;;;;5011244;28;20397;-72
2021/07/20 09:08:17;;;;;;;16.23;10.43;;;21.80;72.70;;;;;;5010286;28;20477;-72
2021/07/20 09:11:13;;;;;;;16.03;10.00;;;21.80;76.30;;;;;;5023099;28;20410;-73
2021/07/20 09:14:10;;;;;;;13.97;9.73;;;21.90;68.90;;;;;;4995018;28;20486;-72
2021/07/20 09:17:07;;;;;;;23.13;10.10;;;21.90;66.90;;;;;;4991886;28;20411;-73
2021/07/20 09:19:59;;;;;;;22.57;10.00;;;22.00;67.60;;;;;;4991636;28;20422;-73
2021/07/20 09:22:51;;;;;;;15.40;10.80;;;22.10;69.80;;;;;;4991781;28;20600;-73
2021/07/20 09:25:40;;;;;;;20.23;11.60;;;22.20;74.40;;;;;;4991436;28;21044;-73
2021/07/20 09:28:36;;;;;;;14.60;11.40;;;22.30;68.30;;;;;;4991705;28;20486;-73
2021/07/20 09:31:29;;;;;;;15.40;9.40;;;22.40;74.50;;;;;;4991597;28;20415;-73
2021/07/20 09:34:25;;;;;;;15.17;10.97;;;22.50;69.60;;;;;;5000738;28;20473;-73
2021/07/20 09:37:17;;;;;;;17.13;11.00;;;22.50;65.40;;;;;;5006751;28;20454;-71
2021/07/20 09:40:12;;;;;;;17.30;10.80;;;22.50;71.10;;;;;;5012673;28;20442;-71
2021/07/20 09:43:02;;;;;;;19.17;10.60;;;22.50;67.00;;;;;;5016307;28;20445;-72
2021/07/20 09:45:54;;;;;;;18.83;11.00;;;22.40;73.30;;;;;;5009092;28;20509;-73
2021/07/20 09:48:50;;;;;;;18.57;11.07;;;22.50;67.00;;;;;;5003562;28;20442;-73
2021/07/20 09:52:00;;;;;;;16.30;10.97;;;22.60;67.10;;;;;;5015741;28;20978;-73
2021/07/20 09:55:09;;;;;;;14.93;9.57;;;22.70;64.70;;;;;;5010981;28;20415;-72
2021/07/20 09:58:00;;;;;;;19.90;10.33;;;22.80;61.90;;;;;;5010815;28;20525;-72
2021/07/20 10:00:57;;;;;;;12.77;10.53;;;22.80;61.00;;;;;;5014387;28;20563;-72
2021/07/20 10:03:53;;;;;;;11.43;9.70;;;22.90;61.00;;;;;;5007519;28;20522;-72
2021/07/20 10:06:44;;;;;;;11.37;8.80;;;23.00;59.50;;;;;;5009184;28;20441;-72
2021/07/20 10:09:38;;;;;;;18.73;9.93;;;23.10;58.80;;;;;;5019937;28;20428;-72
2021/07/20 10:12:29;;;;;;;17.57;10.87;;;23.20;59.10;;;;;;5015204;28;20421;-71
2021/07/20 10:15:19;;;;;;;12.80;10.00;;;23.30;62.00;;;;;;5011955;28;20421;-72
2021/07/20 10:18:13;;;;;;;15.07;9.53;;;23.40;58.60;;;;;;5025807;28;20419;-72
2021/07/20 10:21:02;;;;;;;14.70;10.20;;;23.40;58.50;;;;;;5023487;28;20421;-72
2021/07/20 10:23:56;;;;;;;17.53;10.27;;;23.40;59.50;;;;;;5023270;28;20460;-72
2021/07/20 10:26:47;;;;;;;14.00;10.67;;;23.60;62.70;;;;;;5021415;28;20455;-72
2021/07/20 10:29:54;;;;;;;18.20;10.00;;;23.60;57.30;;;;;;5014730;28;20972;-73
2021/07/20 10:32:54;;;;;;;13.37;9.70;;;23.60;60.40;;;;;;5011574;28;20461;-73
2021/07/20 10:35:45;;;;;;;14.30;9.80;;;23.30;60.20;;;;;;5018640;28;20560;-73
2021/07/20 10:38:35;;;;;;;15.80;10.40;;;23.10;60.80;;;;;;5033133;28;20477;-72
2021/07/20 10:41:26;;;;;;;14.43;10.93;;;23.10;57.70;;;;;;5019459;28;20429;-72
2021/07/20 10:44:14;;;;;;;13.10;10.20;;;23.10;60.00;;;;;;5020499;28;20427;-72
2021/07/20 10:47:05;;;;;;;17.20;10.83;;;23.20;59.50;;;;;;5022197;28;20482;-72
2021/07/20 10:49:54;;;;;;;16.83;10.47;;;23.30;56.80;;;;;;5018585;28;20521;-73
2021/07/20 10:53:01;;;;;;;13.30;9.80;;;23.10;60.60;;;;;;5009396;28;20530;-73
2021/07/20 10:55:57;;;;;;;20.83;11.37;;;23.40;63.20;;;;;;5016027;28;20516;-72
2021/07/20 10:58:54;;;;;;;13.00;10.00;;;23.60;58.80;;;;;;5010051;28;20438;-73
2021/07/20 11:02:02;;;;;;;15.67;10.80;;;23.60;57.60;;;;;;5011152;28;20570;-73
2021/07/20 11:04:55;;;;;;;14.60;10.57;;;23.50;57.00;;;;;;5015797;28;20804;-73
2021/07/20 11:07:46;;;;;;;16.47;10.80;;;23.50;56.50;;;;;;5011914;28;20479;-72
2021/07/20 11:10:36;;;;;;;16.50;10.90;;;23.60;53.00;;;;;;5017196;28;20443;-73
2021/07/20 11:13:24;;;;;;;13.10;9.63;;;23.60;55.90;;;;;;5017185;28;20558;-73
2021/07/20 11:16:12;;;;;;;15.77;9.80;;;23.70;56.70;;;;;;5015017;28;20507;-73
2021/07/20 11:19:00;;;;;;;17.50;9.57;;;23.90;56.80;;;;;;5013580;28;20466;-73
2021/07/20 11:21:47;;;;;;;16.37;10.33;;;24.00;57.60;;;;;;5006916;28;20434;-72
2021/07/20 11:24:34;;;;;;;11.90;9.20;;;24.20;61.40;;;;;;5011612;28;20585;-73
2021/07/20 11:27:22;;;;;;;14.70;10.77;;;24.30;56.40;;;;;;5020182;28;20512;-73
2021/07/20 11:30:10;;;;;;;11.30;9.20;;;24.30;54.60;;;;;;5012324;28;20825;-71
2021/07/20 11:33:02;;;;;;;18.37;10.27;;;24.40;53.30;;;;;;5016514;28;20485;-71
2021/07/20 11:35:53;;;;;;;12.17;9.57;;;24.30;53.10;;;;;;5006185;28;20832;-71
2021/07/20 11:38:40;;;;;;;14.67;9.53;;;24.40;54.80;;;;;;5012474;28;20434;-72
2021/07/20 11:41:41;;;;;;;12.30;9.20;;;24.40;54.60;;;;;;5016910;28;20430;-72
2021/07/20 11:44:41;;;;;;;17.83;9.93;;;24.50;53.60;;;;;;5023113;28;20481;-72
2021/07/20 11:47:32;;;;;;;14.17;9.50;;;24.70;56.60;;;;;;5013330;28;20478;-72
2021/07/20 11:50:28;;;;;;;10.57;7.97;;;24.90;51.80;;;;;;5011620;28;20442;-71
2021/07/20 11:53:24;;;;;;;12.60;9.40;;;25.10;51.40;;;;;;5006912;28;20537;-72
2021/07/20 11:56:19;;;;;;;15.77;9.67;;;25.10;52.00;;;;;;5015190;28;20427;-72
2021/07/20 11:59:44;;;;;;;11.10;8.77;;;25.10;52.30;;;;;;5018116;28;20468;-71
2021/07/20 12:03:15;;;;;;;12.83;9.00;;;25.30;50.70;;;;;;4983819;28;21012;-72
2021/07/20 12:06:16;;;;;;;11.93;8.80;;;25.30;49.80;;;;;;5011145;28;20457;-70
2021/07/20 12:09:18;;;;;;;17.80;10.23;;;25.20;51.50;;;;;;5012688;28;20842;-71
2021/07/20 12:12:04;;;;;;;11.57;9.07;;;25.10;52.70;;;;;;5012848;28;20530;-72
2021/07/20 12:14:50;;;;;;;12.10;9.33;;;25.10;53.90;;;;;;5010636;28;20453;-72
2021/07/20 12:17:36;;;;;;;12.07;9.00;;;25.20;49.30;;;;;;5016774;28;20499;-71
2021/07/20 12:20:23;;;;;;;15.07;8.90;;;25.10;48.40;;;;;;5013438;28;20611;-72
2021/07/20 12:23:12;;;;;;;12.37;9.20;;;25.30;49.30;;;;;;5019035;28;21014;-71
2021/07/20 12:25:57;;;;;;;13.37;8.87;;;25.40;50.30;;;;;;5016840;28;20445;-70
2021/07/20 12:28:44;;;;;;;20.23;9.80;;;25.50;50.60;;;;;;5019027;28;20471;-71
2021/07/20 12:31:31;;;;;;;14.50;9.30;;;25.60;51.70;;;;;;5020665;28;20459;-72
2021/07/20 12:34:17;;;;;;;17.60;9.90;;;25.70;47.90;;;;;;5019639;28;20509;-72
2021/07/20 12:37:03;;;;;;;12.90;9.67;;;25.90;48.70;;;;;;5017248;28;20453;-72
2021/07/20 12:39:50;;;;;;;12.37;9.07;;;26.00;45.70;;;;;;5018564;28;20425;-72
2021/07/20 12:42:38;;;;;;;13.67;9.30;;;25.90;48.70;;;;;;5013433;28;20462;-72
2021/07/20 12:45:24;;;;;;;13.97;8.80;;;26.10;48.50;;;;;;5013444;28;20474;-72
2021/07/20 12:48:30;;;;;;;11.30;8.57;;;26.10;45.80;;;;;;5010135;28;21309;-72
2021/07/20 12:51:18;;;;;;;11.93;9.60;;;26.20;47.70;;;;;;5008682;28;20450;-72
2021/07/20 12:54:04;;;;;;;12.23;8.77;;;26.30;46.80;;;;;;5014524;28;20471;-71
2021/07/20 12:56:52;;;;;;;14.10;9.00;;;26.30;48.10;;;;;;5020468;28;20431;-72
2021/07/20 12:59:40;;;;;;;11.37;8.90;;;26.30;45.50;;;;;;5017721;28;20450;-72
2021/07/20 13:02:26;;;;;;;10.37;8.60;;;26.40;44.60;;;;;;5013734;28;20597;-72
2021/07/20 13:05:12;;;;;;;13.03;9.00;;;26.60;46.20;;;;;;5008404;28;20574;-72
2021/07/20 13:07:59;;;;;;;11.37;8.83;;;26.60;45.20;;;;;;5014698;28;20471;-72
2021/07/20 13:10:46;;;;;;;10.80;8.13;;;26.60;46.20;;;;;;5010768;28;20872;-72
2021/07/20 13:13:33;;;;;;;12.43;9.13;;;26.60;46.20;;;;;;5019476;28;20819;-72
2021/07/20 13:16:21;;;;;;;13.30;9.53;;;26.70;46.30;;;;;;5009056;28;20460;-71
2021/07/20 13:19:07;;;;;;;13.60;9.03;;;26.80;44.90;;;;;;5008099;28;20579;-71
2021/07/20 13:21:53;;;;;;;12.30;9.20;;;26.80;42.60;;;;;;5016428;28;20451;-72
2021/07/20 13:24:40;;;;;;;11.10;8.77;;;26.80;45.00;;;;;;5018148;28;20805;-71
2021/07/20 13:27:26;;;;;;;12.07;8.57;;;27.00;43.00;;;;;;5019733;28;20423;-71
2021/07/20 13:30:18;;;;;;;13.67;9.97;;;27.10;45.80;;;;;;5010162;28;20522;-71
2021/07/20 13:33:03;;;;;;;11.77;10.00;;;27.30;43.30;;;;;;5013025;28;20455;-72
2021/07/20 13:35:49;;;;;;;13.20;9.53;;;27.30;42.40;;;;;;5009413;28;20886;-72
2021/07/20 13:38:37;;;;;;;11.73;8.20;;;27.50;42.60;;;;;;5017709;28;20446;-72
2021/07/20 13:41:24;;;;;;;12.07;8.70;;;27.50;44.40;;;;;;5010227;28;20442;-72
2021/07/20 13:44:11;;;;;;;11.20;8.93;;;27.40;44.40;;;;;;5015951;28;20456;-71
2021/07/20 13:46:59;;;;;;;10.57;8.97;;;27.50;41.40;;;;;;5014795;28;20459;-72
2021/07/20 13:49:45;;;;;;;15.00;8.47;;;27.50;43.10;;;;;;5018693;28;20474;-72
2021/07/20 13:52:34;;;;;;;13.50;8.13;;;27.70;43.20;;;;;;5012893;28;20569;-72
2021/07/20 13:55:24;;;;;;;10.87;8.10;;;27.80;42.40;;;;;;5021597;28;20471;-71
2021/07/20 13:58:14;;;;;;;13.23;9.33;;;27.80;42.20;;;;;;5022905;28;20417;-70
2021/07/20 14:01:01;;;;;;;11.63;8.07;;;27.80;39.60;;;;;;5017988;28;20427;-69
2021/07/20 14:03:50;;;;;;;12.60;8.70;;;27.70;41.90;;;;;;5029571;28;20582;-69
2021/07/20 14:06:36;;;;;;;12.47;8.77;;;27.60;39.90;;;;;;5021717;28;20585;-69
2021/07/20 14:09:23;;;;;;;10.80;9.00;;;27.40;38.70;;;;;;5013844;28;21011;-68
2021/07/20 14:12:10;;;;;;;16.93;8.80;;;27.20;40.60;;;;;;5014119;28;20520;-69
2021/07/20 14:14:58;;;;;;;9.80;8.17;;;27.20;39.40;;;;;;5019388;28;20454;-69
2021/07/20 14:17:44;;;;;;;10.43;7.83;;;27.20;39.70;;;;;;5021180;28;20447;-69
2021/07/20 14:20:36;;;;;;;12.17;8.40;;;27.20;40.00;;;;;;5013401;28;20499;-69
2021/07/20 14:23:24;;;;;;;11.00;8.20;;;27.20;40.00;;;;;;5020265;22;20499;-77